sensor_id;sensor_type;location;lat;lon;timestamp;P1;durP1;ratioP1;P2;durP2;ratioP2
70320;SDS011;61127;55.826;37.046;2023-02-04T00:00:17;7.50;;;3.72;;
70320;SDS011;61127;55.826;37.046;2023-02-04T00:02:43;9.73;;;4.15;;
70320;SDS011;61127;55.826;37.046;2023-02-04T00:05:11;8.77;;;4.30;;
70320;SDS011;61127;55.826;37.046;2023-02-04T00:07:37;8.13;;;3.70;;
70320;SDS011;61127;55.826;37.046;2023-02-04T00:10:04;8.10;;;3.85;;
70320;SDS011;61127;55.826;37.046;2023-02-04T00:12:30;10.55;;;3.88;;
70320;SDS011;61127;55.826;37.046;2023-02-04T00:14:57;8.77;;;4.10;;
70320;SDS011;61127;55.826;37.046;2023-02-04T00:17:22;8.13;;;3.87;;
70320;SDS011;61127;55.826;37.046;2023-02-04T00:19:48;9.65;;;4.03;;
70320;SDS011;61127;55.826;37.046;2023-02-04T00:22:13;8.33;;;4.13;;
70320;SDS011;61127;55.826;37.046;2023-02-04T00:24:40;8.18;;;3.58;;
70320;SDS011;61127;55.826;37.046;2023-02-04T00:27:07;8.40;;;3.90;;
70320;SDS011;61127;55.826;37.046;2023-02-04T00:29:33;9.35;;;3.65;;
70320;SDS011;61127;55.826;37.046;2023-02-04T00:31:58;8.65;;;3.90;;
70320;SDS011;61127;55.826;37.046;2023-02-04T00:34:27;7.53;;;3.50;;
70320;SDS011;61127;55.826;37.046;2023-02-04T00:36:52;7.55;;;3.72;;
70320;SDS011;61127;55.826;37.046;2023-02-04T00:39:18;9.40;;;3.90;;
70320;SDS011;61127;55.826;37.046;2023-02-04T00:41:43;6.32;;;3.60;;
70320;SDS011;61127;55.826;37.046;2023-02-04T00:44:10;9.47;;;3.93;;
70320;SDS011;61127;55.826;37.046;2023-02-04T00:46:38;8.18;;;3.63;;
70320;SDS011;61127;55.826;37.046;2023-02-04T00:49:04;8.02;;;4.05;;
70320;SDS011;61127;55.826;37.046;2023-02-04T00:51:30;9.63;;;4.40;;
70320;SDS011;61127;55.826;37.046;2023-02-04T00:53:57;8.23;;;3.80;;
70320;SDS011;61127;55.826;37.046;2023-02-04T00:56:25;9.73;;;3.90;;
70320;SDS011;61127;55.826;37.046;2023-02-04T00:58:50;8.73;;;3.63;;
70320;SDS011;61127;55.826;37.046;2023-02-04T01:01:16;7.33;;;3.77;;
70320;SDS011;61127;55.826;37.046;2023-02-04T01:03:42;7.72;;;3.88;;
70320;SDS011;61127;55.826;37.046;2023-02-04T01:06:07;8.20;;;3.70;;
70320;SDS011;61127;55.826;37.046;2023-02-04T01:08:33;7.73;;;3.70;;
70320;SDS011;61127;55.826;37.046;2023-02-04T01:10:58;9.05;;;4.55;;
70320;SDS011;61127;55.826;37.046;2023-02-04T01:13:24;9.20;;;4.47;;
70320;SDS011;61127;55.826;37.046;2023-02-04T01:15:52;8.65;;;4.35;;
70320;SDS011;61127;55.826;37.046;2023-02-04T01:18:17;8.73;;;4.40;;
70320;SDS011;61127;55.826;37.046;2023-02-04T01:20:43;9.63;;;4.13;;
70320;SDS011;61127;55.826;37.046;2023-02-04T01:23:08;7.93;;;3.50;;
70320;SDS011;61127;55.826;37.046;2023-02-04T01:25:36;9.33;;;4.10;;
70320;SDS011;61127;55.826;37.046;2023-02-04T01:28:01;7.78;;;3.70;;
70320;SDS011;61127;55.826;37.046;2023-02-04T01:30:29;8.48;;;4.05;;
70320;SDS011;61127;55.826;37.046;2023-02-04T01:32:55;9.80;;;4.00;;
70320;SDS011;61127;55.826;37.046;2023-02-04T01:35:20;7.75;;;3.72;;
70320;SDS011;61127;55.826;37.046;2023-02-04T01:37:46;7.83;;;3.80;;
70320;SDS011;61127;55.826;37.046;2023-02-04T01:40:13;7.45;;;3.45;;
70320;SDS011;61127;55.826;37.046;2023-02-04T01:42:38;8.00;;;3.87;;
70320;SDS011;61127;55.826;37.046;2023-02-04T01:45:04;8.48;;;3.35;;
70320;SDS011;61127;55.826;37.046;2023-02-04T01:47:33;7.35;;;3.47;;
70320;SDS011;61127;55.826;37.046;2023-02-04T01:49:59;9.27;;;3.93;;
70320;SDS011;61127;55.826;37.046;2023-02-04T01:52:24;8.65;;;3.83;;
70320;SDS011;61127;55.826;37.046;2023-02-04T01:54:52;8.77;;;3.50;;
70320;SDS011;61127;55.826;37.046;2023-02-04T01:57:18;8.43;;;3.50;;
70320;SDS011;61127;55.826;37.046;2023-02-04T01:59:44;7.93;;;3.63;;
70320;SDS011;61127;55.826;37.046;2023-02-04T02:02:35;7.68;;;3.85;;
70320;SDS011;61127;55.826;37.046;2023-02-04T02:04:59;7.63;;;3.43;;
70320;SDS011;61127;55.826;37.046;2023-02-04T02:07:25;6.95;;;3.40;;
70320;SDS011;61127;55.826;37.046;2023-02-04T02:09:50;7.97;;;3.87;;
70320;SDS011;61127;55.826;37.046;2023-02-04T02:12:16;8.63;;;4.20;;
70320;SDS011;61127;55.826;37.046;2023-02-04T02:14:43;9.00;;;3.57;;
70320;SDS011;61127;55.826;37.046;2023-02-04T02:17:08;8.13;;;3.60;;
70320;SDS011;61127;55.826;37.046;2023-02-04T02:19:35;8.50;;;3.80;;
70320;SDS011;61127;55.826;37.046;2023-02-04T02:22:03;8.40;;;3.83;;
70320;SDS011;61127;55.826;37.046;2023-02-04T02:24:31;7.20;;;3.35;;
70320;SDS011;61127;55.826;37.046;2023-02-04T02:26:58;7.68;;;3.67;;
70320;SDS011;61127;55.826;37.046;2023-02-04T02:29:25;8.82;;;4.20;;
70320;SDS011;61127;55.826;37.046;2023-02-04T02:31:50;9.73;;;3.90;;
70320;SDS011;61127;55.826;37.046;2023-02-04T02:34:17;8.40;;;4.13;;
70320;SDS011;61127;55.826;37.046;2023-02-04T02:36:43;9.00;;;4.00;;
70320;SDS011;61127;55.826;37.046;2023-02-04T02:39:09;7.73;;;3.67;;
70320;SDS011;61127;55.826;37.046;2023-02-04T02:41:35;8.77;;;3.55;;
70320;SDS011;61127;55.826;37.046;2023-02-04T02:44:01;9.27;;;3.80;;
70320;SDS011;61127;55.826;37.046;2023-02-04T02:46:31;8.35;;;3.67;;
70320;SDS011;61127;55.826;37.046;2023-02-04T02:48:57;7.85;;;3.78;;
70320;SDS011;61127;55.826;37.046;2023-02-04T02:51:23;8.30;;;4.00;;
70320;SDS011;61127;55.826;37.046;2023-02-04T02:53:51;8.88;;;3.90;;
70320;SDS011;61127;55.826;37.046;2023-02-04T02:56:17;8.85;;;4.00;;
70320;SDS011;61127;55.826;37.046;2023-02-04T02:58:43;7.60;;;3.42;;
70320;SDS011;61127;55.826;37.046;2023-02-04T03:01:09;7.53;;;3.72;;
70320;SDS011;61127;55.826;37.046;2023-02-04T03:03:42;8.80;;;3.87;;
70320;SDS011;61127;55.826;37.046;2023-02-04T03:06:16;8.73;;;3.53;;
70320;SDS011;61127;55.826;37.046;2023-02-04T03:08:45;8.05;;;3.80;;
70320;SDS011;61127;55.826;37.046;2023-02-04T03:11:11;10.98;;;4.07;;
70320;SDS011;61127;55.826;37.046;2023-02-04T03:13:36;8.53;;;4.07;;
70320;SDS011;61127;55.826;37.046;2023-02-04T03:16:03;9.43;;;3.92;;
70320;SDS011;61127;55.826;37.046;2023-02-04T03:18:29;9.00;;;3.83;;
70320;SDS011;61127;55.826;37.046;2023-02-04T03:20:55;8.45;;;3.47;;
70320;SDS011;61127;55.826;37.046;2023-02-04T03:23:21;9.15;;;4.15;;
70320;SDS011;61127;55.826;37.046;2023-02-04T03:25:48;8.47;;;4.00;;
70320;SDS011;61127;55.826;37.046;2023-02-04T03:28:15;8.23;;;3.70;;
70320;SDS011;61127;55.826;37.046;2023-02-04T03:30:41;8.13;;;3.80;;
70320;SDS011;61127;55.826;37.046;2023-02-04T03:33:06;8.43;;;4.10;;
70320;SDS011;61127;55.826;37.046;2023-02-04T03:35:33;7.87;;;3.60;;
70320;SDS011;61127;55.826;37.046;2023-02-04T03:37:59;8.43;;;3.95;;
70320;SDS011;61127;55.826;37.046;2023-02-04T03:40:24;8.73;;;3.73;;
70320;SDS011;61127;55.826;37.046;2023-02-04T03:42:50;8.65;;;3.70;;
70320;SDS011;61127;55.826;37.046;2023-02-04T03:45:17;9.73;;;3.87;;
70320;SDS011;61127;55.826;37.046;2023-02-04T03:47:42;8.65;;;4.10;;
70320;SDS011;61127;55.826;37.046;2023-02-04T03:50:08;8.10;;;3.97;;
70320;SDS011;61127;55.826;37.046;2023-02-04T03:52:36;10.23;;;4.78;;
70320;SDS011;61127;55.826;37.046;2023-02-04T03:55:03;8.07;;;4.00;;
70320;SDS011;61127;55.826;37.046;2023-02-04T03:57:29;9.00;;;4.80;;
70320;SDS011;61127;55.826;37.046;2023-02-04T03:59:54;8.67;;;3.83;;
70320;SDS011;61127;55.826;37.046;2023-02-04T04:02:20;7.75;;;3.60;;
70320;SDS011;61127;55.826;37.046;2023-02-04T04:04:46;8.77;;;3.90;;
70320;SDS011;61127;55.826;37.046;2023-02-04T04:07:12;7.47;;;3.72;;
70320;SDS011;61127;55.826;37.046;2023-02-04T04:09:38;9.17;;;4.17;;
70320;SDS011;61127;55.826;37.046;2023-02-04T04:12:03;9.52;;;4.10;;
70320;SDS011;61127;55.826;37.046;2023-02-04T04:14:30;8.77;;;4.00;;
70320;SDS011;61127;55.826;37.046;2023-02-04T04:16:55;8.75;;;4.47;;
70320;SDS011;61127;55.826;37.046;2023-02-04T04:19:21;10.20;;;4.23;;
70320;SDS011;61127;55.826;37.046;2023-02-04T04:21:46;8.73;;;4.10;;
70320;SDS011;61127;55.826;37.046;2023-02-04T04:24:12;8.50;;;4.10;;
70320;SDS011;61127;55.826;37.046;2023-02-04T04:26:37;8.37;;;3.93;;
70320;SDS011;61127;55.826;37.046;2023-02-04T04:29:03;11.37;;;4.43;;
70320;SDS011;61127;55.826;37.046;2023-02-04T04:31:28;9.45;;;3.90;;
70320;SDS011;61127;55.826;37.046;2023-02-04T04:33:54;9.83;;;4.30;;
70320;SDS011;61127;55.826;37.046;2023-02-04T04:36:23;9.67;;;4.20;;
70320;SDS011;61127;55.826;37.046;2023-02-04T04:38:48;8.98;;;4.22;;
70320;SDS011;61127;55.826;37.046;2023-02-04T04:41:14;10.90;;;4.60;;
70320;SDS011;61127;55.826;37.046;2023-02-04T04:43:40;9.10;;;4.53;;
70320;SDS011;61127;55.826;37.046;2023-02-04T04:46:06;9.30;;;4.23;;
70320;SDS011;61127;55.826;37.046;2023-02-04T04:48:32;12.52;;;4.28;;
70320;SDS011;61127;55.826;37.046;2023-02-04T04:50:57;10.20;;;4.37;;
70320;SDS011;61127;55.826;37.046;2023-02-04T04:53:23;11.35;;;4.40;;
70320;SDS011;61127;55.826;37.046;2023-02-04T04:55:49;10.10;;;4.10;;
70320;SDS011;61127;55.826;37.046;2023-02-04T04:58:15;9.63;;;4.57;;
70320;SDS011;61127;55.826;37.046;2023-02-04T05:00:41;9.90;;;4.50;;
70320;SDS011;61127;55.826;37.046;2023-02-04T05:03:06;10.43;;;4.70;;
70320;SDS011;61127;55.826;37.046;2023-02-04T05:05:32;10.68;;;5.13;;
70320;SDS011;61127;55.826;37.046;2023-02-04T05:07:58;12.68;;;5.05;;
70320;SDS011;61127;55.826;37.046;2023-02-04T05:10:24;11.37;;;4.37;;
70320;SDS011;61127;55.826;37.046;2023-02-04T05:12:49;10.27;;;5.10;;
70320;SDS011;61127;55.826;37.046;2023-02-04T05:15:16;10.60;;;5.33;;
70320;SDS011;61127;55.826;37.046;2023-02-04T05:17:42;12.80;;;6.15;;
70320;SDS011;61127;55.826;37.046;2023-02-04T05:20:07;14.67;;;7.33;;
70320;SDS011;61127;55.826;37.046;2023-02-04T05:22:33;13.02;;;6.20;;
70320;SDS011;61127;55.826;37.046;2023-02-04T05:25:00;10.60;;;5.43;;
70320;SDS011;61127;55.826;37.046;2023-02-04T05:27:25;12.02;;;5.43;;
70320;SDS011;61127;55.826;37.046;2023-02-04T05:29:51;12.03;;;6.30;;
70320;SDS011;61127;55.826;37.046;2023-02-04T05:32:16;12.07;;;5.30;;
70320;SDS011;61127;55.826;37.046;2023-02-04T05:34:43;12.73;;;5.80;;
70320;SDS011;61127;55.826;37.046;2023-02-04T05:37:08;11.23;;;5.43;;
70320;SDS011;61127;55.826;37.046;2023-02-04T05:39:34;10.38;;;4.68;;
70320;SDS011;61127;55.826;37.046;2023-02-04T05:42:00;11.70;;;5.30;;
70320;SDS011;61127;55.826;37.046;2023-02-04T05:44:26;12.20;;;5.20;;
70320;SDS011;61127;55.826;37.046;2023-02-04T05:46:52;9.88;;;4.68;;
70320;SDS011;61127;55.826;37.046;2023-02-04T05:49:17;10.85;;;5.00;;
70320;SDS011;61127;55.826;37.046;2023-02-04T05:51:43;9.87;;;4.50;;
70320;SDS011;61127;55.826;37.046;2023-02-04T05:54:08;9.77;;;4.43;;
70320;SDS011;61127;55.826;37.046;2023-02-04T05:56:34;9.80;;;4.40;;
70320;SDS011;61127;55.826;37.046;2023-02-04T05:58:59;10.27;;;5.07;;
70320;SDS011;61127;55.826;37.046;2023-02-04T06:01:25;13.07;;;5.67;;
70320;SDS011;61127;55.826;37.046;2023-02-04T06:03:50;13.40;;;5.85;;
70320;SDS011;61127;55.826;37.046;2023-02-04T06:06:19;15.97;;;6.97;;
70320;SDS011;61127;55.826;37.046;2023-02-04T06:08:45;20.30;;;9.90;;
70320;SDS011;61127;55.826;37.046;2023-02-04T06:11:10;16.37;;;8.17;;
70320;SDS011;61127;55.826;37.046;2023-02-04T06:13:36;13.67;;;6.13;;
70320;SDS011;61127;55.826;37.046;2023-02-04T06:16:03;12.93;;;5.85;;
70320;SDS011;61127;55.826;37.046;2023-02-04T06:18:29;14.13;;;6.40;;
70320;SDS011;61127;55.826;37.046;2023-02-04T06:20:54;13.05;;;5.88;;
70320;SDS011;61127;55.826;37.046;2023-02-04T06:23:20;15.33;;;7.17;;
70320;SDS011;61127;55.826;37.046;2023-02-04T06:25:48;15.10;;;8.43;;
70320;SDS011;61127;55.826;37.046;2023-02-04T06:28:14;19.10;;;11.15;;
70320;SDS011;61127;55.826;37.046;2023-02-04T06:30:40;18.60;;;9.90;;
70320;SDS011;61127;55.826;37.046;2023-02-04T06:33:06;17.00;;;8.77;;
70320;SDS011;61127;55.826;37.046;2023-02-04T06:35:33;18.10;;;7.43;;
70320;SDS011;61127;55.826;37.046;2023-02-04T06:37:58;11.18;;;5.55;;
70320;SDS011;61127;55.826;37.046;2023-02-04T06:40:24;10.67;;;4.37;;
70320;SDS011;61127;55.826;37.046;2023-02-04T06:42:50;11.83;;;5.27;;
70320;SDS011;61127;55.826;37.046;2023-02-04T06:45:18;10.15;;;5.07;;
70320;SDS011;61127;55.826;37.046;2023-02-04T06:47:43;11.75;;;5.30;;
70320;SDS011;61127;55.826;37.046;2023-02-04T06:50:09;10.07;;;4.67;;
70320;SDS011;61127;55.826;37.046;2023-02-04T06:52:34;11.63;;;5.20;;
70320;SDS011;61127;55.826;37.046;2023-02-04T06:55:02;10.18;;;4.78;;
70320;SDS011;61127;55.826;37.046;2023-02-04T06:57:29;10.57;;;5.15;;
70320;SDS011;61127;55.826;37.046;2023-02-04T06:59:54;10.10;;;4.73;;
70320;SDS011;61127;55.826;37.046;2023-02-04T07:02:20;9.77;;;4.35;;
70320;SDS011;61127;55.826;37.046;2023-02-04T07:07:15;10.27;;;4.53;;
70320;SDS011;61127;55.826;37.046;2023-02-04T07:09:41;9.57;;;4.87;;
70320;SDS011;61127;55.826;37.046;2023-02-04T07:12:06;9.00;;;4.63;;
70320;SDS011;61127;55.826;37.046;2023-02-04T07:14:34;9.43;;;4.70;;
70320;SDS011;61127;55.826;37.046;2023-02-04T07:17:00;8.95;;;4.32;;
70320;SDS011;61127;55.826;37.046;2023-02-04T07:19:25;11.67;;;5.03;;
70320;SDS011;61127;55.826;37.046;2023-02-04T07:21:51;9.80;;;4.80;;
70320;SDS011;61127;55.826;37.046;2023-02-04T07:24:22;11.13;;;5.70;;
70320;SDS011;61127;55.826;37.046;2023-02-04T07:26:48;11.05;;;4.90;;
70320;SDS011;61127;55.826;37.046;2023-02-04T07:29:13;11.65;;;4.80;;
70320;SDS011;61127;55.826;37.046;2023-02-04T07:31:39;12.27;;;5.50;;
70320;SDS011;61127;55.826;37.046;2023-02-04T07:34:05;13.23;;;5.70;;
70320;SDS011;61127;55.826;37.046;2023-02-04T07:36:30;12.57;;;5.00;;
70320;SDS011;61127;55.826;37.046;2023-02-04T07:38:56;10.73;;;4.67;;
70320;SDS011;61127;55.826;37.046;2023-02-04T07:41:22;8.68;;;4.50;;
70320;SDS011;61127;55.826;37.046;2023-02-04T07:43:47;10.57;;;5.00;;
70320;SDS011;61127;55.826;37.046;2023-02-04T07:46:15;9.98;;;5.10;;
70320;SDS011;61127;55.826;37.046;2023-02-04T07:48:41;10.95;;;4.63;;
70320;SDS011;61127;55.826;37.046;2023-02-04T07:51:06;9.97;;;4.90;;
70320;SDS011;61127;55.826;37.046;2023-02-04T07:53:33;12.95;;;4.88;;
70320;SDS011;61127;55.826;37.046;2023-02-04T07:56:07;13.00;;;5.05;;
70320;SDS011;61127;55.826;37.046;2023-02-04T07:58:33;13.10;;;6.30;;
70320;SDS011;61127;55.826;37.046;2023-02-04T08:00:58;13.77;;;6.40;;
70320;SDS011;61127;55.826;37.046;2023-02-04T08:03:25;13.75;;;6.03;;
70320;SDS011;61127;55.826;37.046;2023-02-04T08:05:52;11.90;;;5.80;;
70320;SDS011;61127;55.826;37.046;2023-02-04T08:08:18;11.38;;;5.53;;
70320;SDS011;61127;55.826;37.046;2023-02-04T08:10:44;10.93;;;5.68;;
70320;SDS011;61127;55.826;37.046;2023-02-04T08:13:12;10.52;;;5.45;;
70320;SDS011;61127;55.826;37.046;2023-02-04T08:15:40;10.63;;;5.53;;
70320;SDS011;61127;55.826;37.046;2023-02-04T08:18:05;12.23;;;5.28;;
70320;SDS011;61127;55.826;37.046;2023-02-04T08:20:31;10.65;;;4.97;;
70320;SDS011;61127;55.826;37.046;2023-02-04T08:22:57;10.50;;;5.60;;
70320;SDS011;61127;55.826;37.046;2023-02-04T08:25:23;10.40;;;5.20;;
70320;SDS011;61127;55.826;37.046;2023-02-04T08:27:49;10.98;;;5.68;;
70320;SDS011;61127;55.826;37.046;2023-02-04T08:30:17;15.00;;;5.30;;
70320;SDS011;61127;55.826;37.046;2023-02-04T08:32:43;10.60;;;5.03;;
70320;SDS011;61127;55.826;37.046;2023-02-04T08:35:09;10.35;;;5.30;;
70320;SDS011;61127;55.826;37.046;2023-02-04T08:37:35;10.73;;;5.20;;
70320;SDS011;61127;55.826;37.046;2023-02-04T08:40:00;12.55;;;6.28;;
70320;SDS011;61127;55.826;37.046;2023-02-04T08:42:26;10.67;;;5.47;;
70320;SDS011;61127;55.826;37.046;2023-02-04T08:44:52;11.20;;;5.60;;
70320;SDS011;61127;55.826;37.046;2023-02-04T08:47:18;13.60;;;6.23;;
70320;SDS011;61127;55.826;37.046;2023-02-04T08:49:43;11.57;;;5.90;;
70320;SDS011;61127;55.826;37.046;2023-02-04T08:52:09;12.63;;;5.55;;
70320;SDS011;61127;55.826;37.046;2023-02-04T08:54:34;10.77;;;5.60;;
70320;SDS011;61127;55.826;37.046;2023-02-04T08:57:00;11.57;;;5.68;;
70320;SDS011;61127;55.826;37.046;2023-02-04T08:59:26;10.23;;;5.53;;
70320;SDS011;61127;55.826;37.046;2023-02-04T09:01:52;11.23;;;5.90;;
70320;SDS011;61127;55.826;37.046;2023-02-04T09:04:19;11.90;;;5.97;;
70320;SDS011;61127;55.826;37.046;2023-02-04T09:06:45;10.63;;;5.60;;
70320;SDS011;61127;55.826;37.046;2023-02-04T09:09:11;11.67;;;6.00;;
70320;SDS011;61127;55.826;37.046;2023-02-04T09:11:36;13.38;;;6.18;;
70320;SDS011;61127;55.826;37.046;2023-02-04T09:14:02;13.10;;;6.33;;
70320;SDS011;61127;55.826;37.046;2023-02-04T09:16:29;15.50;;;5.85;;
70320;SDS011;61127;55.826;37.046;2023-02-04T09:18:54;11.27;;;6.03;;
70320;SDS011;61127;55.826;37.046;2023-02-04T09:21:20;12.50;;;6.70;;
70320;SDS011;61127;55.826;37.046;2023-02-04T09:23:46;13.50;;;6.35;;
70320;SDS011;61127;55.826;37.046;2023-02-04T09:26:13;13.30;;;6.73;;
70320;SDS011;61127;55.826;37.046;2023-02-04T09:28:39;14.07;;;6.90;;
70320;SDS011;61127;55.826;37.046;2023-02-04T09:31:05;13.50;;;7.05;;
70320;SDS011;61127;55.826;37.046;2023-02-04T09:33:31;13.70;;;7.40;;
70320;SDS011;61127;55.826;37.046;2023-02-04T09:35:57;17.17;;;7.63;;
70320;SDS011;61127;55.826;37.046;2023-02-04T09:38:22;14.23;;;7.30;;
70320;SDS011;61127;55.826;37.046;2023-02-04T09:40:58;13.00;;;7.20;;
70320;SDS011;61127;55.826;37.046;2023-02-04T09:43:26;13.57;;;7.45;;
70320;SDS011;61127;55.826;37.046;2023-02-04T09:45:53;14.30;;;8.05;;
70320;SDS011;61127;55.826;37.046;2023-02-04T09:48:20;13.50;;;7.35;;
70320;SDS011;61127;55.826;37.046;2023-02-04T09:50:46;15.43;;;7.47;;
70320;SDS011;61127;55.826;37.046;2023-02-04T09:53:13;14.43;;;7.65;;
70320;SDS011;61127;55.826;37.046;2023-02-04T09:55:42;14.55;;;7.72;;
70320;SDS011;61127;55.826;37.046;2023-02-04T09:58:15;13.40;;;7.28;;
70320;SDS011;61127;55.826;37.046;2023-02-04T10:00:44;15.27;;;7.35;;
70320;SDS011;61127;55.826;37.046;2023-02-04T10:03:13;15.75;;;7.82;;
70320;SDS011;61127;55.826;37.046;2023-02-04T10:05:40;14.38;;;7.95;;
70320;SDS011;61127;55.826;37.046;2023-02-04T10:08:06;15.35;;;7.90;;
70320;SDS011;61127;55.826;37.046;2023-02-04T10:10:31;14.77;;;7.55;;
70320;SDS011;61127;55.826;37.046;2023-02-04T10:12:57;12.87;;;7.57;;
70320;SDS011;61127;55.826;37.046;2023-02-04T10:15:24;14.38;;;8.32;;
70320;SDS011;61127;55.826;37.046;2023-02-04T10:17:51;16.48;;;8.43;;
70320;SDS011;61127;55.826;37.046;2023-02-04T10:20:18;14.87;;;7.77;;
70320;SDS011;61127;55.826;37.046;2023-02-04T10:22:44;15.85;;;8.10;;
70320;SDS011;61127;55.826;37.046;2023-02-04T10:25:14;15.75;;;7.72;;
70320;SDS011;61127;55.826;37.046;2023-02-04T10:27:47;12.75;;;6.78;;
70320;SDS011;61127;55.826;37.046;2023-02-04T10:32:45;12.07;;;5.93;;
70320;SDS011;61127;55.826;37.046;2023-02-04T10:35:12;12.18;;;5.80;;
70320;SDS011;61127;55.826;37.046;2023-02-04T10:37:38;12.07;;;5.95;;
70320;SDS011;61127;55.826;37.046;2023-02-04T10:40:03;10.07;;;5.43;;
70320;SDS011;61127;55.826;37.046;2023-02-04T10:42:30;11.85;;;5.95;;
70320;SDS011;61127;55.826;37.046;2023-02-04T10:44:56;12.40;;;6.50;;
70320;SDS011;61127;55.826;37.046;2023-02-04T10:47:22;12.73;;;6.38;;
70320;SDS011;61127;55.826;37.046;2023-02-04T10:50:13;12.02;;;6.05;;
70320;SDS011;61127;55.826;37.046;2023-02-04T10:52:39;13.70;;;6.53;;
70320;SDS011;61127;55.826;37.046;2023-02-04T10:55:10;15.23;;;7.05;;
70320;SDS011;61127;55.826;37.046;2023-02-04T10:57:37;15.30;;;7.53;;
70320;SDS011;61127;55.826;37.046;2023-02-04T11:00:05;12.80;;;6.63;;
70320;SDS011;61127;55.826;37.046;2023-02-04T11:05:21;14.10;;;7.75;;
70320;SDS011;61127;55.826;37.046;2023-02-04T11:07:47;12.15;;;6.53;;
70320;SDS011;61127;55.826;37.046;2023-02-04T11:10:15;14.35;;;6.88;;
70320;SDS011;61127;55.826;37.046;2023-02-04T11:17:58;12.75;;;6.65;;
70320;SDS011;61127;55.826;37.046;2023-02-04T11:20:30;14.20;;;7.38;;
70320;SDS011;61127;55.826;37.046;2023-02-04T11:22:55;15.13;;;7.78;;
70320;SDS011;61127;55.826;37.046;2023-02-04T11:25:34;12.40;;;6.40;;
70320;SDS011;61127;55.826;37.046;2023-02-04T11:28:12;12.70;;;6.20;;
70320;SDS011;61127;55.826;37.046;2023-02-04T11:30:37;11.98;;;6.18;;
70320;SDS011;61127;55.826;37.046;2023-02-04T11:33:04;12.57;;;6.27;;
70320;SDS011;61127;55.826;37.046;2023-02-04T11:35:31;12.25;;;6.47;;
70320;SDS011;61127;55.826;37.046;2023-02-04T11:37:57;10.32;;;5.63;;
70320;SDS011;61127;55.826;37.046;2023-02-04T11:42:48;12.90;;;6.40;;
70320;SDS011;61127;55.826;37.046;2023-02-04T11:45:19;16.00;;;7.95;;
70320;SDS011;61127;55.826;37.046;2023-02-04T11:47:45;19.17;;;10.03;;
70320;SDS011;61127;55.826;37.046;2023-02-04T11:52:37;13.20;;;6.47;;
70320;SDS011;61127;55.826;37.046;2023-02-04T11:57:36;12.07;;;6.25;;
70320;SDS011;61127;55.826;37.046;2023-02-04T12:00:02;11.33;;;6.70;;
70320;SDS011;61127;55.826;37.046;2023-02-04T12:02:39;14.45;;;6.97;;
70320;SDS011;61127;55.826;37.046;2023-02-04T12:05:11;13.15;;;6.35;;
70320;SDS011;61127;55.826;37.046;2023-02-04T12:07:37;13.38;;;6.20;;
70320;SDS011;61127;55.826;37.046;2023-02-04T12:10:13;12.20;;;6.00;;
70320;SDS011;61127;55.826;37.046;2023-02-04T12:12:40;11.38;;;6.15;;
70320;SDS011;61127;55.826;37.046;2023-02-04T12:15:22;11.65;;;6.25;;
70320;SDS011;61127;55.826;37.046;2023-02-04T12:18:07;29.25;;;12.07;;
70320;SDS011;61127;55.826;37.046;2023-02-04T12:20:36;21.17;;;8.50;;
70320;SDS011;61127;55.826;37.046;2023-02-04T12:23:02;26.88;;;10.00;;
70320;SDS011;61127;55.826;37.046;2023-02-04T12:25:28;20.13;;;8.35;;
70320;SDS011;61127;55.826;37.046;2023-02-04T12:27:54;16.75;;;7.97;;
70320;SDS011;61127;55.826;37.046;2023-02-04T12:30:21;23.98;;;9.65;;
70320;SDS011;61127;55.826;37.046;2023-02-04T12:32:47;18.40;;;8.00;;
70320;SDS011;61127;55.826;37.046;2023-02-04T12:35:12;17.90;;;8.52;;
70320;SDS011;61127;55.826;37.046;2023-02-04T12:37:38;18.73;;;8.80;;
70320;SDS011;61127;55.826;37.046;2023-02-04T12:40:04;22.00;;;9.50;;
70320;SDS011;61127;55.826;37.046;2023-02-04T12:42:31;19.70;;;8.93;;
70320;SDS011;61127;55.826;37.046;2023-02-04T12:44:58;38.05;;;16.67;;
70320;SDS011;61127;55.826;37.046;2023-02-04T12:47:23;44.83;;;15.20;;
70320;SDS011;61127;55.826;37.046;2023-02-04T12:49:49;59.37;;;22.47;;
70320;SDS011;61127;55.826;37.046;2023-02-04T12:52:14;29.10;;;11.53;;
70320;SDS011;61127;55.826;37.046;2023-02-04T12:54:40;28.38;;;12.52;;
70320;SDS011;61127;55.826;37.046;2023-02-04T12:57:08;26.25;;;11.60;;
70320;SDS011;61127;55.826;37.046;2023-02-04T12:59:35;19.83;;;9.18;;
70320;SDS011;61127;55.826;37.046;2023-02-04T13:02:00;14.87;;;8.20;;
70320;SDS011;61127;55.826;37.046;2023-02-04T13:04:27;14.20;;;6.88;;
70320;SDS011;61127;55.826;37.046;2023-02-04T13:06:53;12.05;;;6.25;;
70320;SDS011;61127;55.826;37.046;2023-02-04T13:09:18;12.43;;;6.03;;
70320;SDS011;61127;55.826;37.046;2023-02-04T13:11:44;12.60;;;6.03;;
70320;SDS011;61127;55.826;37.046;2023-02-04T13:14:09;11.67;;;5.87;;
70320;SDS011;61127;55.826;37.046;2023-02-04T13:16:35;11.85;;;5.95;;
70320;SDS011;61127;55.826;37.046;2023-02-04T13:19:00;12.17;;;5.70;;
70320;SDS011;61127;55.826;37.046;2023-02-04T13:21:26;13.00;;;5.70;;
70320;SDS011;61127;55.826;37.046;2023-02-04T13:23:51;13.95;;;6.05;;
70320;SDS011;61127;55.826;37.046;2023-02-04T13:26:18;11.80;;;5.50;;
70320;SDS011;61127;55.826;37.046;2023-02-04T13:28:44;13.30;;;6.35;;
70320;SDS011;61127;55.826;37.046;2023-02-04T13:31:09;14.77;;;6.20;;
70320;SDS011;61127;55.826;37.046;2023-02-04T13:33:35;14.60;;;6.35;;
70320;SDS011;61127;55.826;37.046;2023-02-04T13:36:00;12.85;;;5.85;;
70320;SDS011;61127;55.826;37.046;2023-02-04T13:38:26;13.50;;;6.43;;
70320;SDS011;61127;55.826;37.046;2023-02-04T13:40:52;16.48;;;6.85;;
70320;SDS011;61127;55.826;37.046;2023-02-04T13:43:17;13.23;;;6.77;;
70320;SDS011;61127;55.826;37.046;2023-02-04T13:45:44;14.82;;;6.50;;
70320;SDS011;61127;55.826;37.046;2023-02-04T13:48:13;11.98;;;5.68;;
70320;SDS011;61127;55.826;37.046;2023-02-04T13:50:38;12.27;;;6.03;;
70320;SDS011;61127;55.826;37.046;2023-02-04T13:53:04;13.35;;;6.25;;
70320;SDS011;61127;55.826;37.046;2023-02-04T13:55:31;12.53;;;6.23;;
70320;SDS011;61127;55.826;37.046;2023-02-04T13:57:56;13.63;;;6.20;;
70320;SDS011;61127;55.826;37.046;2023-02-04T14:00:22;15.73;;;6.33;;
70320;SDS011;61127;55.826;37.046;2023-02-04T14:02:48;12.73;;;6.13;;
70320;SDS011;61127;55.826;37.046;2023-02-04T14:05:14;12.27;;;5.80;;
70320;SDS011;61127;55.826;37.046;2023-02-04T14:07:40;13.02;;;6.18;;
70320;SDS011;61127;55.826;37.046;2023-02-04T14:10:05;11.70;;;5.67;;
70320;SDS011;61127;55.826;37.046;2023-02-04T14:12:31;12.05;;;5.60;;
70320;SDS011;61127;55.826;37.046;2023-02-04T14:14:57;12.23;;;6.00;;
70320;SDS011;61127;55.826;37.046;2023-02-04T14:17:22;14.13;;;5.90;;
70320;SDS011;61127;55.826;37.046;2023-02-04T14:19:48;14.57;;;6.22;;
70320;SDS011;61127;55.826;37.046;2023-02-04T14:22:13;12.50;;;6.20;;
70320;SDS011;61127;55.826;37.046;2023-02-04T14:24:41;14.23;;;6.17;;
70320;SDS011;61127;55.826;37.046;2023-02-04T14:27:07;12.75;;;5.65;;
70320;SDS011;61127;55.826;37.046;2023-02-04T14:29:33;14.77;;;6.05;;
70320;SDS011;61127;55.826;37.046;2023-02-04T14:31:59;12.38;;;6.22;;
70320;SDS011;61127;55.826;37.046;2023-02-04T14:34:26;13.70;;;6.37;;
70320;SDS011;61127;55.826;37.046;2023-02-04T14:36:52;12.80;;;6.38;;
70320;SDS011;61127;55.826;37.046;2023-02-04T14:39:18;14.17;;;6.03;;
70320;SDS011;61127;55.826;37.046;2023-02-04T14:41:43;15.00;;;6.23;;